sensor_id;sensor_type;location;lat;lon;timestamp;temperature;humidity
62912;DHT22;49111;51.028;4.218;2024-01-30T00:02:12;12.10;99.90
62912;DHT22;49111;51.028;4.218;2024-01-30T00:04:38;12.20;99.90
62912;DHT22;49111;51.028;4.218;2024-01-30T00:07:04;12.10;99.90
62912;DHT22;49111;51.028;4.218;2024-01-30T00:09:30;12.20;99.90
62912;DHT22;49111;51.028;4.218;2024-01-30T00:11:56;12.30;99.90
62912;DHT22;49111;51.028;4.218;2024-01-30T00:14:22;12.20;99.90
62912;DHT22;49111;51.028;4.218;2024-01-30T00:16:48;12.20;99.90
62912;DHT22;49111;51.028;4.218;2024-01-30T00:19:14;12.20;99.90
62912;DHT22;49111;51.028;4.218;2024-01-30T00:21:40;12.20;99.90
62912;DHT22;49111;51.028;4.218;2024-01-30T00:24:06;12.20;99.90
62912;DHT22;49111;51.028;4.218;2024-01-30T00:26:33;12.30;99.90
62912;DHT22;49111;51.028;4.218;2024-01-30T00:28:59;12.30;99.90
62912;DHT22;49111;51.028;4.218;2024-01-30T00:31:24;12.20;99.90
62912;DHT22;49111;51.028;4.218;2024-01-30T00:33:50;12.20;99.90
62912;DHT22;49111;51.028;4.218;2024-01-30T00:36:16;12.20;99.90
62912;DHT22;49111;51.028;4.218;2024-01-30T00:38:42;12.30;99.90
62912;DHT22;49111;51.028;4.218;2024-01-30T00:41:08;12.20;99.90
62912;DHT22;49111;51.028;4.218;2024-01-30T00:43:35;12.20;99.90
62912;DHT22;49111;51.028;4.218;2024-01-30T00:46:01;12.10;99.90
62912;DHT22;49111;51.028;4.218;2024-01-30T00:48:27;12.20;99.90
62912;DHT22;49111;51.028;4.218;2024-01-30T00:50:53;12.20;99.90
62912;DHT22;49111;51.028;4.218;2024-01-30T00:53:19;12.20;99.90
62912;DHT22;49111;51.028;4.218;2024-01-30T00:55:45;12.20;99.90
62912;DHT22;49111;51.028;4.218;2024-01-30T00:58:11;12.30;99.90
62912;DHT22;49111;51.028;4.218;2024-01-30T01:00:37;12.30;99.90
62912;DHT22;49111;51.028;4.218;2024-01-30T01:03:03;12.30;99.90
62912;DHT22;49111;51.028;4.218;2024-01-30T01:05:28;12.30;99.90
62912;DHT22;49111;51.028;4.218;2024-01-30T01:07:55;12.30;99.90
62912;DHT22;49111;51.028;4.218;2024-01-30T01:10:21;12.20;99.90
62912;DHT22;49111;51.028;4.218;2024-01-30T01:12:48;12.10;99.90
62912;DHT22;49111;51.028;4.218;2024-01-30T01:15:14;12.10;99.90
62912;DHT22;49111;51.028;4.218;2024-01-30T01:17:40;12.10;99.90
62912;DHT22;49111;51.028;4.218;2024-01-30T01:20:06;12.20;99.90
62912;DHT22;49111;51.028;4.218;2024-01-30T01:22:33;12.20;99.90
62912;DHT22;49111;51.028;4.218;2024-01-30T01:25:00;12.00;99.90
62912;DHT22;49111;51.028;4.218;2024-01-30T01:27:26;11.90;99.90
62912;DHT22;49111;51.028;4.218;2024-01-30T01:29:52;12.10;99.90
62912;DHT22;49111;51.028;4.218;2024-01-30T01:32:19;12.10;99.90
62912;DHT22;49111;51.028;4.218;2024-01-30T01:34:44;12.10;99.90
62912;DHT22;49111;51.028;4.218;2024-01-30T01:37:10;12.10;99.90
62912;DHT22;49111;51.028;4.218;2024-01-30T01:39:36;12.00;99.90
62912;DHT22;49111;51.028;4.218;2024-01-30T01:42:02;12.10;99.90
62912;DHT22;49111;51.028;4.218;2024-01-30T01:44:28;11.90;99.90
62912;DHT22;49111;51.028;4.218;2024-01-30T01:46:54;11.80;99.90
62912;DHT22;49111;51.028;4.218;2024-01-30T01:49:22;11.90;99.90
62912;DHT22;49111;51.028;4.218;2024-01-30T01:51:50;11.90;99.90
62912;DHT22;49111;51.028;4.218;2024-01-30T01:54:19;11.90;99.90
62912;DHT22;49111;51.028;4.218;2024-01-30T01:56:46;11.80;99.90
62912;DHT22;49111;51.028;4.218;2024-01-30T01:59:12;11.90;99.90
62912;DHT22;49111;51.028;4.218;2024-01-30T02:01:38;11.90;99.90
62912;DHT22;49111;51.028;4.218;2024-01-30T02:04:07;11.90;99.90
62912;DHT22;49111;51.028;4.218;2024-01-30T02:06:34;11.80;99.90
62912;DHT22;49111;51.028;4.218;2024-01-30T02:09:00;11.90;99.90
62912;DHT22;49111;51.028;4.218;2024-01-30T02:11:26;11.70;99.90
62912;DHT22;49111;51.028;4.218;2024-01-30T02:13:53;11.60;99.90
62912;DHT22;49111;51.028;4.218;2024-01-30T02:16:18;11.70;99.90
62912;DHT22;49111;51.028;4.218;2024-01-30T02:18:44;11.70;99.90
62912;DHT22;49111;51.028;4.218;2024-01-30T02:21:16;11.60;99.90
62912;DHT22;49111;51.028;4.218;2024-01-30T02:23:44;11.60;99.90
62912;DHT22;49111;51.028;4.218;2024-01-30T02:26:11;11.70;99.90
62912;DHT22;49111;51.028;4.218;2024-01-30T02:28:38;11.70;99.90
62912;DHT22;49111;51.028;4.218;2024-01-30T02:31:04;11.70;99.90
62912;DHT22;49111;51.028;4.218;2024-01-30T02:33:30;11.70;99.90
62912;DHT22;49111;51.028;4.218;2024-01-30T02:35:56;11.90;99.90
62912;DHT22;49111;51.028;4.218;2024-01-30T02:38:21;12.00;99.90
62912;DHT22;49111;51.028;4.218;2024-01-30T02:40:49;12.10;99.90
62912;DHT22;49111;51.028;4.218;2024-01-30T02:43:16;12.10;99.90
62912;DHT22;49111;51.028;4.218;2024-01-30T02:45:42;12.10;99.90
62912;DHT22;49111;51.028;4.218;2024-01-30T02:48:08;12.20;99.90
62912;DHT22;49111;51.028;4.218;2024-01-30T02:50:34;12.20;99.90
62912;DHT22;49111;51.028;4.218;2024-01-30T02:53:00;12.30;99.90
62912;DHT22;49111;51.028;4.218;2024-01-30T02:55:26;12.30;99.90
62912;DHT22;49111;51.028;4.218;2024-01-30T02:57:52;12.30;99.90
62912;DHT22;49111;51.028;4.218;2024-01-30T03:00:19;12.20;99.90
62912;DHT22;49111;51.028;4.218;2024-01-30T03:02:45;12.30;99.90
62912;DHT22;49111;51.028;4.218;2024-01-30T03:05:11;12.40;99.90
62912;DHT22;49111;51.028;4.218;2024-01-30T03:07:37;12.30;99.90
62912;DHT22;49111;51.028;4.218;2024-01-30T03:10:04;12.40;99.90
62912;DHT22;49111;51.028;4.218;2024-01-30T03:12:31;12.40;99.90
62912;DHT22;49111;51.028;4.218;2024-01-30T03:14:57;12.40;99.90
62912;DHT22;49111;51.028;4.218;2024-01-30T03:17:23;12.40;99.90
62912;DHT22;49111;51.028;4.218;2024-01-30T03:19:50;12.40;99.90
62912;DHT22;49111;51.028;4.218;2024-01-30T03:22:16;12.50;99.90
62912;DHT22;49111;51.028;4.218;2024-01-30T03:24:41;12.40;99.90
62912;DHT22;49111;51.028;4.218;2024-01-30T03:27:08;12.50;99.90
62912;DHT22;49111;51.028;4.218;2024-01-30T03:29:34;12.50;99.90
62912;DHT22;49111;51.028;4.218;2024-01-30T03:32:00;12.40;99.90
62912;DHT22;49111;51.028;4.218;2024-01-30T03:34:25;12.50;99.90
62912;DHT22;49111;51.028;4.218;2024-01-30T03:36:51;12.40;99.90
62912;DHT22;49111;51.028;4.218;2024-01-30T03:39:17;12.40;99.90
62912;DHT22;49111;51.028;4.218;2024-01-30T03:41:43;12.40;99.90
62912;DHT22;49111;51.028;4.218;2024-01-30T03:44:10;12.20;99.90
62912;DHT22;49111;51.028;4.218;2024-01-30T03:46:36;12.30;99.90
62912;DHT22;49111;51.028;4.218;2024-01-30T03:49:01;12.30;99.90
62912;DHT22;49111;51.028;4.218;2024-01-30T03:51:27;12.20;99.90
62912;DHT22;49111;51.028;4.218;2024-01-30T03:53:53;12.40;99.90
62912;DHT22;49111;51.028;4.218;2024-01-30T03:56:19;12.50;99.90
62912;DHT22;49111;51.028;4.218;2024-01-30T03:58:45;12.40;99.90
62912;DHT22;49111;51.028;4.218;2024-01-30T04:01:16;12.40;99.90
62912;DHT22;49111;51.028;4.218;2024-01-30T04:03:42;12.30;99.90
62912;DHT22;49111;51.028;4.218;2024-01-30T04:06:09;12.40;99.90
62912;DHT22;49111;51.028;4.218;2024-01-30T04:08:36;12.30;99.90
62912;DHT22;49111;51.028;4.218;2024-01-30T04:11:05;12.30;99.90
62912;DHT22;49111;51.028;4.218;2024-01-30T04:13:32;12.30;99.90
62912;DHT22;49111;51.028;4.218;2024-01-30T04:15:59;12.40;99.90
62912;DHT22;49111;51.028;4.218;2024-01-30T04:18:27;12.40;99.90
62912;DHT22;49111;51.028;4.218;2024-01-30T04:20:54;12.40;99.90
62912;DHT22;49111;51.028;4.218;2024-01-30T04:23:21;12.30;99.90
62912;DHT22;49111;51.028;4.218;2024-01-30T04:25:47;12.30;99.90
62912;DHT22;49111;51.028;4.218;2024-01-30T04:28:13;12.10;99.90
62912;DHT22;49111;51.028;4.218;2024-01-30T04:30:39;12.20;99.90
62912;DHT22;49111;51.028;4.218;2024-01-30T04:33:05;12.20;99.90
62912;DHT22;49111;51.028;4.218;2024-01-30T04:35:31;12.20;99.90
62912;DHT22;49111;51.028;4.218;2024-01-30T04:37:57;12.10;99.90
62912;DHT22;49111;51.028;4.218;2024-01-30T04:40:23;12.00;99.90
62912;DHT22;49111;51.028;4.218;2024-01-30T04:42:49;12.10;99.90
62912;DHT22;49111;51.028;4.218;2024-01-30T04:45:15;12.20;99.90
62912;DHT22;49111;51.028;4.218;2024-01-30T04:47:41;12.20;99.90
62912;DHT22;49111;51.028;4.218;2024-01-30T04:50:07;12.30;99.90
62912;DHT22;49111;51.028;4.218;2024-01-30T04:52:34;12.20;99.90
62912;DHT22;49111;51.028;4.218;2024-01-30T04:55:00;12.20;99.90
62912;DHT22;49111;51.028;4.218;2024-01-30T04:57:26;12.20;99.90
62912;DHT22;49111;51.028;4.218;2024-01-30T04:59:52;12.20;99.90
62912;DHT22;49111;51.028;4.218;2024-01-30T05:02:17;12.20;99.90
62912;DHT22;49111;51.028;4.218;2024-01-30T05:04:43;12.20;99.90
62912;DHT22;49111;51.028;4.218;2024-01-30T05:07:09;12.20;99.90
62912;DHT22;49111;51.028;4.218;2024-01-30T05:09:35;12.20;99.90
62912;DHT22;49111;51.028;4.218;2024-01-30T05:12:02;12.30;99.90
62912;DHT22;49111;51.028;4.218;2024-01-30T05:14:28;12.30;99.90
62912;DHT22;49111;51.028;4.218;2024-01-30T05:16:53;12.20;99.90
62912;DHT22;49111;51.028;4.218;2024-01-30T05:19:19;12.30;99.90
62912;DHT22;49111;51.028;4.218;2024-01-30T05:21:47;12.40;99.90
62912;DHT22;49111;51.028;4.218;2024-01-30T05:24:12;12.40;99.90
62912;DHT22;49111;51.028;4.218;2024-01-30T05:26:38;12.30;99.90
62912;DHT22;49111;51.028;4.218;2024-01-30T05:29:05;12.40;99.90
62912;DHT22;49111;51.028;4.218;2024-01-30T05:31:31;12.30;99.90
62912;DHT22;49111;51.028;4.218;2024-01-30T05:33:56;12.30;99.90
62912;DHT22;49111;51.028;4.218;2024-01-30T05:36:22;12.20;99.90
62912;DHT22;49111;51.028;4.218;2024-01-30T05:38:48;12.10;99.90
62912;DHT22;49111;51.028;4.218;2024-01-30T05:41:14;12.20;99.90
62912;DHT22;49111;51.028;4.218;2024-01-30T05:43:40;12.30;99.90
62912;DHT22;49111;51.028;4.218;2024-01-30T05:46:06;12.40;99.90
62912;DHT22;49111;51.028;4.218;2024-01-30T05:48:32;12.40;99.90
62912;DHT22;49111;51.028;4.218;2024-01-30T05:50:58;12.40;99.90
62912;DHT22;49111;51.028;4.218;2024-01-30T05:53:25;12.40;99.90
62912;DHT22;49111;51.028;4.218;2024-01-30T05:55:51;12.30;99.90
62912;DHT22;49111;51.028;4.218;2024-01-30T05:58:17;12.40;99.90
62912;DHT22;49111;51.028;4.218;2024-01-30T06:00:42;12.30;99.90
62912;DHT22;49111;51.028;4.218;2024-01-30T06:03:08;12.30;99.90
62912;DHT22;49111;51.028;4.218;2024-01-30T06:05:34;12.30;99.90
62912;DHT22;49111;51.028;4.218;2024-01-30T06:08:00;12.40;99.90
62912;DHT22;49111;51.028;4.218;2024-01-30T06:10:26;12.40;99.90
62912;DHT22;49111;51.028;4.218;2024-01-30T06:12:51;12.40;99.90
62912;DHT22;49111;51.028;4.218;2024-01-30T06:15:17;12.30;99.90
62912;DHT22;49111;51.028;4.218;2024-01-30T06:17:43;12.20;99.90
62912;DHT22;49111;51.028;4.218;2024-01-30T06:20:09;12.20;99.90
62912;DHT22;49111;51.028;4.218;2024-01-30T06:22:35;12.10;99.90
62912;DHT22;49111;51.028;4.218;2024-01-30T06:25:01;12.10;99.90
62912;DHT22;49111;51.028;4.218;2024-01-30T06:27:27;12.10;99.90
62912;DHT22;49111;51.028;4.218;2024-01-30T06:29:53;12.20;99.90
62912;DHT22;49111;51.028;4.218;2024-01-30T06:32:19;12.30;99.90
62912;DHT22;49111;51.028;4.218;2024-01-30T06:34:45;12.30;99.90
62912;DHT22;49111;51.028;4.218;2024-01-30T06:37:11;12.20;99.90
62912;DHT22;49111;51.028;4.218;2024-01-30T06:39:36;12.30;99.90
62912;DHT22;49111;51.028;4.218;2024-01-30T06:42:02;12.20;99.90
62912;DHT22;49111;51.028;4.218;2024-01-30T06:44:28;12.20;99.90
62912;DHT22;49111;51.028;4.218;2024-01-30T06:46:54;12.20;99.90
62912;DHT22;49111;51.028;4.218;2024-01-30T06:49:20;12.20;99.90
62912;DHT22;49111;51.028;4.218;2024-01-30T06:51:47;12.20;99.90
62912;DHT22;49111;51.028;4.218;2024-01-30T06:54:13;12.20;99.90
62912;DHT22;49111;51.028;4.218;2024-01-30T06:56:39;12.30;99.90
62912;DHT22;49111;51.028;4.218;2024-01-30T06:59:05;12.40;99.90
62912;DHT22;49111;51.028;4.218;2024-01-30T07:01:31;12.40;99.90
62912;DHT22;49111;51.028;4.218;2024-01-30T07:03:57;12.40;99.90
62912;DHT22;49111;51.028;4.218;2024-01-30T07:06:23;12.40;99.90
62912;DHT22;49111;51.028;4.218;2024-01-30T07:08:49;12.40;99.90
62912;DHT22;49111;51.028;4.218;2024-01-30T07:11:21;12.40;99.90
62912;DHT22;49111;51.028;4.218;2024-01-30T07:13:48;12.40;99.90
62912;DHT22;49111;51.028;4.218;2024-01-30T07:16:17;12.50;99.90
62912;DHT22;49111;51.028;4.218;2024-01-30T07:18:44;12.50;99.90
62912;DHT22;49111;51.028;4.218;2024-01-30T07:21:10;12.40;99.90
62912;DHT22;49111;51.028;4.218;2024-01-30T07:23:36;12.40;99.90
62912;DHT22;49111;51.028;4.218;2024-01-30T07:26:07;12.40;99.90
62912;DHT22;49111;51.028;4.218;2024-01-30T07:28:32;12.30;99.90
62912;DHT22;49111;51.028;4.218;2024-01-30T07:30:59;12.40;99.90
62912;DHT22;49111;51.028;4.218;2024-01-30T07:33:24;12.50;99.90
62912;DHT22;49111;51.028;4.218;2024-01-30T07:35:52;12.50;99.90
62912;DHT22;49111;51.028;4.218;2024-01-30T07:38:18;12.50;99.90
62912;DHT22;49111;51.028;4.218;2024-01-30T07:40:44;12.50;99.90
62912;DHT22;49111;51.028;4.218;2024-01-30T07:43:10;12.50;99.90
62912;DHT22;49111;51.028;4.218;2024-01-30T07:45:36;12.50;99.90
62912;DHT22;49111;51.028;4.218;2024-01-30T07:48:05;12.50;99.90
62912;DHT22;49111;51.028;4.218;2024-01-30T07:50:31;12.50;99.90
62912;DHT22;49111;51.028;4.218;2024-01-30T07:52:59;12.50;99.90
62912;DHT22;49111;51.028;4.218;2024-01-30T07:55:25;12.50;99.90
62912;DHT22;49111;51.028;4.218;2024-01-30T07:57:54;12.50;99.90
62912;DHT22;49111;51.028;4.218;2024-01-30T08:00:21;12.60;99.90
62912;DHT22;49111;51.028;4.218;2024-01-30T08:02:47;12.60;99.90
62912;DHT22;49111;51.028;4.218;2024-01-30T08:05:13;12.60;99.90
62912;DHT22;49111;51.028;4.218;2024-01-30T08:07:43;12.60;99.90
62912;DHT22;49111;51.028;4.218;2024-01-30T08:10:11;12.60;99.90
62912;DHT22;49111;51.028;4.218;2024-01-30T08:12:39;12.60;99.90
62912;DHT22;49111;51.028;4.218;2024-01-30T08:15:05;12.60;99.90
62912;DHT22;49111;51.028;4.218;2024-01-30T08:17:31;12.60;99.90
62912;DHT22;49111;51.028;4.218;2024-01-30T08:19:57;12.70;99.90
62912;DHT22;49111;51.028;4.218;2024-01-30T08:22:23;12.70;99.90
62912;DHT22;49111;51.028;4.218;2024-01-30T08:24:49;12.70;99.90
62912;DHT22;49111;51.028;4.218;2024-01-30T08:27:15;12.60;99.90
62912;DHT22;49111;51.028;4.218;2024-01-30T08:29:41;12.60;99.90
62912;DHT22;49111;51.028;4.218;2024-01-30T08:32:07;12.70;99.90
62912;DHT22;49111;51.028;4.218;2024-01-30T08:34:33;12.70;99.90
62912;DHT22;49111;51.028;4.218;2024-01-30T08:36:59;12.70;99.90
62912;DHT22;49111;51.028;4.218;2024-01-30T08:39:25;12.70;99.90
62912;DHT22;49111;51.028;4.218;2024-01-30T08:41:51;12.70;99.90
62912;DHT22;49111;51.028;4.218;2024-01-30T08:44:17;12.70;99.90
62912;DHT22;49111;51.028;4.218;2024-01-30T08:46:46;12.80;99.90
62912;DHT22;49111;51.028;4.218;2024-01-30T08:49:13;12.90;99.90
62912;DHT22;49111;51.028;4.218;2024-01-30T08:51:39;12.90;99.90
62912;DHT22;49111;51.028;4.218;2024-01-30T08:54:05;12.90;99.90
62912;DHT22;49111;51.028;4.218;2024-01-30T08:56:31;13.10;99.90
62912;DHT22;49111;51.028;4.218;2024-01-30T08:59:00;13.10;99.90
62912;DHT22;49111;51.028;4.218;2024-01-30T09:01:25;13.00;99.90
62912;DHT22;49111;51.028;4.218;2024-01-30T09:03:52;12.90;99.90
62912;DHT22;49111;51.028;4.218;2024-01-30T09:06:18;13.00;99.90
62912;DHT22;49111;51.028;4.218;2024-01-30T09:08:43;13.00;99.90
62912;DHT22;49111;51.028;4.218;2024-01-30T09:11:13;13.00;99.90
62912;DHT22;49111;51.028;4.218;2024-01-30T09:13:39;12.80;99.90
62912;DHT22;49111;51.028;4.218;2024-01-30T09:16:06;12.90;99.90
62912;DHT22;49111;51.028;4.218;2024-01-30T09:18:32;13.00;99.90
62912;DHT22;49111;51.028;4.218;2024-01-30T09:20:58;13.10;99.90
62912;DHT22;49111;51.028;4.218;2024-01-30T09:23:24;13.00;99.90
62912;DHT22;49111;51.028;4.218;2024-01-30T09:25:50;12.90;99.90
62912;DHT22;49111;51.028;4.218;2024-01-30T09:28:20;13.00;99.90
62912;DHT22;49111;51.028;4.218;2024-01-30T09:30:45;13.00;99.90
62912;DHT22;49111;51.028;4.218;2024-01-30T09:33:11;12.90;99.90
62912;DHT22;49111;51.028;4.218;2024-01-30T09:35:37;12.90;99.90
62912;DHT22;49111;51.028;4.218;2024-01-30T09:38:03;12.70;99.90
62912;DHT22;49111;51.028;4.218;2024-01-30T09:40:29;12.70;99.90
62912;DHT22;49111;51.028;4.218;2024-01-30T09:42:55;12.80;99.90
62912;DHT22;49111;51.028;4.218;2024-01-30T09:45:25;12.90;99.90
62912;DHT22;49111;51.028;4.218;2024-01-30T09:47:51;12.80;99.90
62912;DHT22;49111;51.028;4.218;2024-01-30T09:50:18;12.90;99.90
62912;DHT22;49111;51.028;4.218;2024-01-30T09:52:47;13.00;99.90
62912;DHT22;49111;51.028;4.218;2024-01-30T09:55:13;13.00;99.90
62912;DHT22;49111;51.028;4.218;2024-01-30T09:57:41;13.00;99.90
62912;DHT22;49111;51.028;4.218;2024-01-30T10:00:07;13.00;99.90
62912;DHT22;49111;51.028;4.218;2024-01-30T10:02:40;13.00;99.90
62912;DHT22;49111;51.028;4.218;2024-01-30T10:05:08;13.00;99.90
62912;DHT22;49111;51.028;4.218;2024-01-30T10:07:34;13.10;99.90
62912;DHT22;49111;51.028;4.218;2024-01-30T10:10:00;13.30;99.90
62912;DHT22;49111;51.028;4.218;2024-01-30T10:12:26;13.30;99.90
62912;DHT22;49111;51.028;4.218;2024-01-30T10:14:52;13.40;99.90
62912;DHT22;49111;51.028;4.218;2024-01-30T10:17:19;13.30;99.90
62912;DHT22;49111;51.028;4.218;2024-01-30T10:19:47;13.20;99.90
62912;DHT22;49111;51.028;4.218;2024-01-30T10:22:12;13.30;99.90
62912;DHT22;49111;51.028;4.218;2024-01-30T10:24:38;13.40;99.90
62912;DHT22;49111;51.028;4.218;2024-01-30T10:27:05;13.30;99.90
62912;DHT22;49111;51.028;4.218;2024-01-30T10:29:32;13.30;99.90
62912;DHT22;49111;51.028;4.218;2024-01-30T10:34:24;13.00;99.90
62912;DHT22;49111;51.028;4.218;2024-01-30T10:36:50;12.90;99.90
62912;DHT22;49111;51.028;4.218;2024-01-30T10:39:22;12.80;99.90
62912;DHT22;49111;51.028;4.218;2024-01-30T10:41:51;12.50;99.90
62912;DHT22;49111;51.028;4.218;2024-01-30T10:44:22;12.50;99.90
62912;DHT22;49111;51.028;4.218;2024-01-30T10:46:58;12.30;99.90
62912;DHT22;49111;51.028;4.218;2024-01-30T10:49:26;12.20;99.90
62912;DHT22;49111;51.028;4.218;2024-01-30T10:51:52;12.20;99.90
62912;DHT22;49111;51.028;4.218;2024-01-30T10:54:22;12.20;99.90
62912;DHT22;49111;51.028;4.218;2024-01-30T10:56:49;12.30;99.90
62912;DHT22;49111;51.028;4.218;2024-01-30T10:59:17;12.30;99.90
62912;DHT22;49111;51.028;4.218;2024-01-30T11:01:44;12.20;99.90
62912;DHT22;49111;51.028;4.218;2024-01-30T11:04:10;12.20;99.90
62912;DHT22;49111;51.028;4.218;2024-01-30T11:06:41;12.20;99.90
62912;DHT22;49111;51.028;4.218;2024-01-30T11:09:11;12.20;99.90
62912;DHT22;49111;51.028;4.218;2024-01-30T11:11:58;12.20;99.90
62912;DHT22;49111;51.028;4.218;2024-01-30T11:14:30;12.20;99.90
62912;DHT22;49111;51.028;4.218;2024-01-30T11:17:00;12.20;99.90
62912;DHT22;49111;51.028;4.218;2024-01-30T11:19:26;12.20;99.90
62912;DHT22;49111;51.028;4.218;2024-01-30T11:21:53;12.20;99.90
62912;DHT22;49111;51.028;4.218;2024-01-30T11:24:20;12.30;99.90
62912;DHT22;49111;51.028;4.218;2024-01-30T11:26:55;12.20;99.90
62912;DHT22;49111;51.028;4.218;2024-01-30T11:29:25;12.40;99.90
62912;DHT22;49111;51.028;4.218;2024-01-30T11:31:58;12.60;99.90
62912;DHT22;49111;51.028;4.218;2024-01-30T11:34:25;12.70;99.90
62912;DHT22;49111;51.028;4.218;2024-01-30T11:36:59;13.00;99.90
62912;DHT22;49111;51.028;4.218;2024-01-30T11:39:26;13.10;99.90
62912;DHT22;49111;51.028;4.218;2024-01-30T11:41:52;13.20;99.90
62912;DHT22;49111;51.028;4.218;2024-01-30T11:44:20;13.20;99.90
62912;DHT22;49111;51.028;4.218;2024-01-30T11:46:51;13.20;99.90
62912;DHT22;49111;51.028;4.218;2024-01-30T11:49:17;13.00;99.90
62912;DHT22;49111;51.028;4.218;2024-01-30T11:51:45;13.00;99.90
62912;DHT22;49111;51.028;4.218;2024-01-30T11:54:11;12.90;99.90
62912;DHT22;49111;51.028;4.218;2024-01-30T11:56:37;12.90;99.90
62912;DHT22;49111;51.028;4.218;2024-01-30T11:59:04;13.00;99.90
62912;DHT22;49111;51.028;4.218;2024-01-30T12:01:31;12.90;99.90
62912;DHT22;49111;51.028;4.218;2024-01-30T12:03:58;12.90;99.90
62912;DHT22;49111;51.028;4.218;2024-01-30T12:06:24;12.90;99.90
62912;DHT22;49111;51.028;4.218;2024-01-30T12:09:01;12.80;99.90
62912;DHT22;49111;51.028;4.218;2024-01-30T12:11:29;12.80;99.90
62912;DHT22;49111;51.028;4.218;2024-01-30T12:13:56;12.70;99.90
62912;DHT22;49111;51.028;4.218;2024-01-30T12:16:22;12.70;99.90
62912;DHT22;49111;51.028;4.218;2024-01-30T12:18:48;12.80;99.90
62912;DHT22;49111;51.028;4.218;2024-01-30T12:21:17;13.00;99.90
62912;DHT22;49111;51.028;4.218;2024-01-30T12:23:44;12.80;99.90
62912;DHT22;49111;51.028;4.218;2024-01-30T12:26:11;13.00;99.90
62912;DHT22;49111;51.028;4.218;2024-01-30T12:28:37;13.00;99.90
62912;DHT22;49111;51.028;4.218;2024-01-30T12:31:12;13.00;99.90
62912;DHT22;49111;51.028;4.218;2024-01-30T12:33:38;13.10;99.90
62912;DHT22;49111;51.028;4.218;2024-01-30T12:36:04;13.00;99.90
62912;DHT22;49111;51.028;4.218;2024-01-30T12:38:30;12.90;99.90
62912;DHT22;49111;51.028;4.218;2024-01-30T12:40:56;12.80;99.90
62912;DHT22;49111;51.028;4.218;2024-01-30T12:43:26;12.70;99.90
62912;DHT22;49111;51.028;4.218;2024-01-30T12:45:52;12.50;99.90
62912;DHT22;49111;51.028;4.218;2024-01-30T12:48:18;12.50;99.90
62912;DHT22;49111;51.028;4.218;2024-01-30T12:50:44;12.40;99.90
62912;DHT22;49111;51.028;4.218;2024-01-30T12:53:10;12.50;99.90
62912;DHT22;49111;51.028;4.218;2024-01-30T12:55:37;12.40;99.90
62912;DHT22;49111;51.028;4.218;2024-01-30T12:58:03;12.50;99.90
62912;DHT22;49111;51.028;4.218;2024-01-30T13:00:29;12.50;99.90
62912;DHT22;49111;51.028;4.218;2024-01-30T13:02:55;12.40;99.90
62912;DHT22;49111;51.028;4.218;2024-01-30T13:05:21;12.30;99.90
62912;DHT22;49111;51.028;4.218;2024-01-30T13:07:47;12.20;99.90
62912;DHT22;49111;51.028;4.218;2024-01-30T13:10:13;12.30;99.90
62912;DHT22;49111;51.028;4.218;2024-01-30T13:12:39;12.30;99.90
62912;DHT22;49111;51.028;4.218;2024-01-30T13:15:05;12.20;99.90
62912;DHT22;49111;51.028;4.218;2024-01-30T13:17:31;12.00;99.90
62912;DHT22;49111;51.028;4.218;2024-01-30T13:19:57;11.90;99.90
62912;DHT22;49111;51.028;4.218;2024-01-30T13:22:24;11.80;99.90
62912;DHT22;49111;51.028;4.218;2024-01-30T13:24:50;11.70;99.90
62912;DHT22;49111;51.028;4.218;2024-01-30T13:27:16;11.70;99.90
62912;DHT22;49111;51.028;4.218;2024-01-30T13:29:41;11.60;99.90
62912;DHT22;49111;51.028;4.218;2024-01-30T13:32:07;11.50;99.90
62912;DHT22;49111;51.028;4.218;2024-01-30T13:34:33;11.50;99.90
62912;DHT22;49111;51.028;4.218;2024-01-30T13:36:59;11.30;99.90
62912;DHT22;49111;51.028;4.218;2024-01-30T13:39:25;11.40;99.90
62912;DHT22;49111;51.028;4.218;2024-01-30T13:41:51;11.40;99.90
62912;DHT22;49111;51.028;4.218;2024-01-30T13:44:18;11.30;99.90
62912;DHT22;49111;51.028;4.218;2024-01-30T13:46:44;11.40;99.90
62912;DHT22;49111;51.028;4.218;2024-01-30T13:49:10;11.40;99.90
62912;DHT22;49111;51.028;4.218;2024-01-30T13:51:36;11.40;99.90
62912;DHT22;49111;51.028;4.218;2024-01-30T13:54:02;11.40;99.90
62912;DHT22;49111;51.028;4.218;2024-01-30T13:56:28;11.30;99.90
62912;DHT22;49111;51.028;4.218;2024-01-30T13:58:54;11.30;99.90
62912;DHT22;49111;51.028;4.218;2024-01-30T14:01:21;11.20;99.90
62912;DHT22;49111;51.028;4.218;2024-01-30T14:03:47;11.20;99.90
62912;DHT22;49111;51.028;4.218;2024-01-30T14:06:13;11.20;99.90
62912;DHT22;49111;51.028;4.218;2024-01-30T14:08:39;11.20;99.90
62912;DHT22;49111;51.028;4.218;2024-01-30T14:11:05;11.20;99.90
62912;DHT22;49111;51.028;4.218;2024-01-30T14:13:31;11.20;99.90
62912;DHT22;49111;51.028;4.218;2024-01-30T14:15:58;11.20;99.90
62912;DHT22;49111;51.028;4.218;2024-01-30T14:18:24;11.20;99.90
62912;DHT22;49111;51.028;4.218;2024-01-30T14:20:51;11.20;99.90
62912;DHT22;49111;51.028;4.218;2024-01-30T14:23:17;11.20;99.90
62912;DHT22;49111;51.028;4.218;2024-01-30T14:25:43;11.20;99.90
62912;DHT22;49111;51.028;4.218;2024-01-30T14:28:10;11.30;99.90
62912;DHT22;49111;51.028;4.218;2024-01-30T14:30:36;11.30;99.90
62912;DHT22;49111;51.028;4.218;2024-01-30T14:33:02;11.30;99.90
62912;DHT22;49111;51.028;4.218;2024-01-30T14:35:28;11.40;99.90
62912;DHT22;49111;51.028;4.218;2024-01-30T14:37:54;11.40;99.90
62912;DHT22;49111;51.028;4.218;2024-01-30T14:40:20;11.40;99.90
62912;DHT22;49111;51.028;4.218;2024-01-30T14:42:46;11.30;99.90
62912;DHT22;49111;51.028;4.218;2024-01-30T14:45:12;11.30;99.90
62912;DHT22;49111;51.028;4.218;2024-01-30T14:47:38;11.30;99.90
62912;DHT22;49111;51.028;4.218;2024-01-30T14:50:04;11.20;99.90
62912;DHT22;49111;51.028;4.218;2024-01-30T14:52:31;11.20;99.90
62912;DHT22;49111;51.028;4.218;2024-01-30T14:54:57;11.30;99.90
62912;DHT22;49111;51.028;4.218;2024-01-30T14:57:24;11.20;99.90
62912;DHT22;49111;51.028;4.218;2024-01-30T14:59:50;11.20;99.90
62912;DHT22;49111;51.028;4.218;2024-01-30T15:02:16;11.20;99.90
62912;DHT22;49111;51.028;4.218;2024-01-30T15:04:46;11.20;99.90
62912;DHT22;49111;51.028;4.218;2024-01-30T15:07:11;11.20;99.90
62912;DHT22;49111;51.028;4.218;2024-01-30T15:09:37;11.00;99.90
62912;DHT22;49111;51.028;4.218;2024-01-30T15:12:03;11.00;99.90
62912;DHT22;49111;51.028;4.218;2024-01-30T15:14:29;10.90;99.90
62912;DHT22;49111;51.028;4.218;2024-01-30T15:16:55;10.90;99.90
62912;DHT22;49111;51.028;4.218;2024-01-30T15:19:21;11.00;99.90
62912;DHT22;49111;51.028;4.218;2024-01-30T15:21:47;10.90;99.90
62912;DHT22;49111;51.028;4.218;2024-01-30T15:24:13;10.90;99.90
62912;DHT22;49111;51.028;4.218;2024-01-30T15:26:41;10.80;99.90
62912;DHT22;49111;51.028;4.218;2024-01-30T15:29:07;10.90;99.90